Аэропорт
Иссык-Куль (UCFL)

 UCFL
ЗЦ Центральная Азия
Бишкек (UCFM)
Бишкек (UCFM)
 42.58830, 76.71330  / 5425 ft

 UCFL 250900Z 14003MPS 110V170 9999 SCT026CB SCT100 05/M00 Q1020 R07/CLRD95
 TAF UCFL 250739Z 2509/2518 13003G08MPS 9999 SCT025CB BKN100
показать схемы



2020 © VATRUS division (Privacy Policy)